Suula — OJKZ — position and weather

sailwx.info

Track history (hours):
 
Tides and Currents Weather Stations Pressure Air Temp Water Temp Dewpoint Dewpoint Depression Visibility Wind Speed Wind Dir Waves Ship Positions

Suula

Last reported at 2014-Nov-16 18:21 UTC. Time now 2014-Nov-24 14:09 UTC.
Position N 59°56' E 021°38'.

Length 140 m; draft 6.5 m.

Type: Tanker. MMSI: 230956996.

Date/timePositionNaut miles runAvg speedWind from/ knotsBaromVisibWave heightAir tempDewpointWater temp
2014-Nov-16 18:21N 59°56' E 021°38'1114.2
2014-Nov-16 17:33N 59°49' E 021°20'1212.0
2014-Nov-16 16:33N 59°37' E 021°27'4715.0
2014-Nov-16 13:25N 59°37' E 023°00'1315.7
2014-Nov-16 12:33N 59°37' E 023°27'1615.6
2014-Nov-16 11:33N 59°38' E 023°58'1615.7
2014-Nov-16 10:33N 59°39' E 024°29'1515.0
2014-Nov-16 09:33N 59°33' E 024°56'3 2.8
2014-Nov-16 08:27N 59°30' E 024°56'0 0.0
2014-Nov-16 07:24N 59°30' E 024°56'0 0.0
2014-Nov-16 06:33N 59°30' E 024°56'0 0.0
2014-Nov-16 05:30N 59°30' E 024°56'2 0.3
2014-Nov-16 00:22N 59°32' E 024°57'1114.0
2014-Nov-15 23:33N 59°42' E 024°49'3 0.1
2014-Nov-14 18:33N 59°45' E 024°53'1514.8
2014-Nov-14 17:33N 59°44' E 024°24'1615.6
2014-Nov-14 16:33N 59°39' E 023°54'1615.8
2014-Nov-14 15:33N 59°34' E 023°25'5814.5
2014-Nov-14 11:34N 59°36' E 021°31'1414.3
2014-Nov-14 10:34N 59°49' E 021°21'2 0.1
2014-Nov-13 09:33N 59°51' E 021°24'1312.9
2014-Nov-13 08:33N 59°38' E 021°24'5714.2
2014-Nov-13 04:33N 59°39' E 023°16'1515.1
2014-Nov-13 03:33N 59°42' E 023°45'1915.2
2014-Nov-13 02:20N 59°47' E 024°21'15 0.5
2014-Nov-11 18:23N 59°47' E 024°51'1214.0
2014-Nov-11 17:33N 59°44' E 024°28'1514.1
2014-Nov-11 16:31N 59°39' E 024°00'1414.3
2014-Nov-11 15:33N 59°35' E 023°35'6813.7
2014-Nov-11 10:33N 59°32' E 021°20'3014.5
2014-Nov-11 08:27N 59°44' E 020°25'  
2014-Nov-08 17:08N 59°32' E 021°13'814.5
2014-Nov-08 16:33N 59°31' E 021°29'5014.4
2014-Nov-08 13:06N 59°38' E 023°06'814.1
2014-Nov-08 12:33N 59°39' E 023°21'1414.2
2014-Nov-08 11:33N 59°43' E 023°48'1414.2
2014-Nov-08 10:33N 59°47' E 024°15'18 0.7
2014-Nov-07 07:30N 59°46' E 024°51'1415.2
2014-Nov-07 06:33N 59°43' E 024°23'1615.5
2014-Nov-07 05:33N 59°39' E 023°53'1515.4
2014-Nov-07 04:33N 59°34' E 023°24'5714.4
2014-Nov-07 00:33N 59°35' E 021°31'1414.5
2014-Nov-06 23:34N 59°48' E 021°21'1515.4
2014-Nov-06 22:33N 59°59' E 021°42'  
Track history (hours):
 
Tides and Currents Weather Stations Pressure Air Temp Water Temp Dewpoint Dewpoint Depression Visibility Wind Speed Wind Dir Waves Ship Positions

Suula

Last reported at 2014-Nov-16 18:21 UTC. Time now 2014-Nov-24 14:09 UTC.
Position N 59°56' E 021°38'.

Length 140 m; draft 6.5 m.

Type: Tanker. MMSI: 230956996.

Date/timePositionNaut miles runAvg speedWind from/ knotsBaromVisibWave heightAir tempDewpointWater temp
2014-Nov-16 18:21N 59°56' E 021°38'1114.2
2014-Nov-16 17:33N 59°49' E 021°20'1212.0
2014-Nov-16 16:33N 59°37' E 021°27'4715.0
2014-Nov-16 13:25N 59°37' E 023°00'1315.7
2014-Nov-16 12:33N 59°37' E 023°27'1615.6
2014-Nov-16 11:33N 59°38' E 023°58'1615.7
2014-Nov-16 10:33N 59°39' E 024°29'1515.0
2014-Nov-16 09:33N 59°33' E 024°56'3 2.8
2014-Nov-16 08:27N 59°30' E 024°56'0 0.0
2014-Nov-16 07:24N 59°30' E 024°56'0 0.0
2014-Nov-16 06:33N 59°30' E 024°56'0 0.0
2014-Nov-16 05:30N 59°30' E 024°56'2 0.3
2014-Nov-16 00:22N 59°32' E 024°57'1114.0
2014-Nov-15 23:33N 59°42' E 024°49'3 0.1
2014-Nov-14 18:33N 59°45' E 024°53'1514.8
2014-Nov-14 17:33N 59°44' E 024°24'1615.6
2014-Nov-14 16:33N 59°39' E 023°54'1615.8
2014-Nov-14 15:33N 59°34' E 023°25'5814.5
2014-Nov-14 11:34N 59°36' E 021°31'1414.3
2014-Nov-14 10:34N 59°49' E 021°21'2 0.1
2014-Nov-13 09:33N 59°51' E 021°24'1312.9
2014-Nov-13 08:33N 59°38' E 021°24'5714.2
2014-Nov-13 04:33N 59°39' E 023°16'1515.1
2014-Nov-13 03:33N 59°42' E 023°45'1915.2
2014-Nov-13 02:20N 59°47' E 024°21'15 0.5
2014-Nov-11 18:23N 59°47' E 024°51'1214.0
2014-Nov-11 17:33N 59°44' E 024°28'1514.1
2014-Nov-11 16:31N 59°39' E 024°00'1414.3
2014-Nov-11 15:33N 59°35' E 023°35'6813.7
2014-Nov-11 10:33N 59°32' E 021°20'3014.5
2014-Nov-11 08:27N 59°44' E 020°25'  
2014-Nov-08 17:08N 59°32' E 021°13'814.5
2014-Nov-08 16:33N 59°31' E 021°29'5014.4
2014-Nov-08 13:06N 59°38' E 023°06'814.1
2014-Nov-08 12:33N 59°39' E 023°21'1414.2
2014-Nov-08 11:33N 59°43' E 023°48'1414.2
2014-Nov-08 10:33N 59°47' E 024°15'18 0.7
2014-Nov-07 07:30N 59°46' E 024°51'1415.2
2014-Nov-07 06:33N 59°43' E 024°23'1615.5
2014-Nov-07 05:33N 59°39' E 023°53'1515.4
2014-Nov-07 04:33N 59°34' E 023°24'5714.4
2014-Nov-07 00:33N 59°35' E 021°31'1414.5
2014-Nov-06 23:34N 59°48' E 021°21'1515.4
2014-Nov-06 22:33N 59°59' E 021°42'  

Dump ship's entire track history